createdAt,value
2023-03-01T00:02:11.045Z,40.58
2023-03-01T00:05:15.486Z,40.80
2023-03-01T00:08:18.324Z,40.82
2023-03-01T00:11:23.860Z,40.95
2023-03-01T00:14:26.778Z,40.95
2023-03-01T00:17:29.913Z,40.92
2023-03-01T00:20:34.493Z,40.80
2023-03-01T00:23:38.954Z,40.78
2023-03-01T00:26:42.070Z,40.88
2023-03-01T00:29:45.010Z,40.85
2023-03-01T00:32:47.905Z,40.74
2023-03-01T00:35:52.504Z,40.77
2023-03-01T00:38:55.853Z,40.63
2023-03-01T00:41:58.855Z,40.68
2023-03-01T00:45:01.776Z,40.64
2023-03-01T00:48:06.139Z,40.78
2023-03-01T00:51:12.305Z,40.55
2023-03-01T00:54:15.225Z,40.64
2023-03-01T00:57:18.159Z,40.69
2023-03-01T01:00:22.314Z,40.58
2023-03-01T01:03:25.864Z,40.62
2023-03-01T01:06:32.266Z,40.53
2023-03-01T01:09:35.383Z,40.63
2023-03-01T01:12:38.398Z,40.51
2023-03-01T01:15:42.153Z,40.40
2023-03-01T01:18:45.276Z,40.37
2023-03-01T01:21:50.043Z,40.41
2023-03-01T01:24:52.911Z,40.35
2023-03-01T01:27:55.826Z,40.36
2023-03-01T01:30:59.004Z,40.50
2023-03-01T01:34:04.568Z,40.46
2023-03-01T01:37:09.222Z,40.29
2023-03-01T01:40:13.276Z,40.43
2023-03-01T01:43:22.374Z,40.27
2023-03-01T01:46:31.242Z,40.30
2023-03-01T01:49:39.033Z,40.26
2023-03-01T01:52:44.250Z,40.36
2023-03-01T01:55:51.240Z,40.27
2023-03-01T01:58:55.112Z,40.30
2023-03-01T02:02:01.483Z,40.22
2023-03-01T02:05:12.513Z,40.27
2023-03-01T02:08:20.399Z,39.97
2023-03-01T02:11:23.931Z,40.23
2023-03-01T02:14:27.472Z,40.14
2023-03-01T02:17:30.738Z,40.08
2023-03-01T02:20:41.050Z,40.12
2023-03-01T02:23:45.608Z,40.19
2023-03-01T02:26:54.041Z,40.09
2023-03-01T02:29:58.384Z,40.08
2023-03-01T02:33:05.518Z,40.05
2023-03-01T02:36:12.513Z,40.20
2023-03-01T02:39:18.901Z,40.25
2023-03-01T02:42:27.255Z,40.15
2023-03-01T02:45:31.823Z,40.20
2023-03-01T02:48:44.277Z,39.98
2023-03-01T02:51:56.835Z,40.08
2023-03-01T02:55:05.244Z,40.15
2023-03-01T02:58:09.063Z,40.15
2023-03-01T03:01:16.079Z,40.01
2023-03-01T03:04:22.050Z,40.07
2023-03-01T03:07:26.352Z,40.10
2023-03-01T03:10:31.410Z,40.04
2023-03-01T03:13:34.711Z,40.04
2023-03-01T03:16:39.067Z,40.12
2023-03-01T03:19:42.034Z,40.05
2023-03-01T03:22:45.009Z,40.16
2023-03-01T03:25:50.490Z,40.08
2023-03-01T03:28:53.464Z,40.04
2023-03-01T03:31:57.937Z,40.11
2023-03-01T03:35:00.889Z,40.06
2023-03-01T03:38:07.699Z,40.06
2023-03-01T03:41:10.620Z,39.95
2023-03-01T03:44:13.898Z,39.93
2023-03-01T03:47:18.152Z,39.94
2023-03-01T03:50:21.046Z,39.96
2023-03-01T03:53:26.932Z,39.79
2023-03-01T03:56:30.208Z,39.76
2023-03-01T03:59:33.505Z,39.81
2023-03-01T04:02:37.781Z,39.76
2023-03-01T04:05:42.311Z,39.67
2023-03-01T04:08:45.165Z,39.12
2023-03-01T04:11:48.102Z,38.69
2023-03-01T04:14:51.007Z,38.64
2023-03-01T04:17:56.841Z,38.76
2023-03-01T04:20:59.706Z,38.77
2023-03-01T04:24:04.630Z,39.00
2023-03-01T04:27:07.529Z,39.04
2023-03-01T04:30:11.982Z,39.11
2023-03-01T04:33:16.246Z,39.14
2023-03-01T04:36:20.949Z,39.16
2023-03-01T04:39:23.838Z,39.25
2023-03-01T04:42:26.765Z,39.26
2023-03-01T04:45:29.817Z,39.34
2023-03-01T04:48:34.744Z,39.13
2023-03-01T04:51:37.750Z,39.36
2023-03-01T04:54:40.657Z,39.26
2023-03-01T04:57:43.924Z,39.36
2023-03-01T05:00:46.825Z,39.28
2023-03-01T05:03:52.997Z,39.26
2023-03-01T05:06:56.994Z,39.24
2023-03-01T05:09:59.874Z,39.31
2023-03-01T05:13:03.377Z,39.29
2023-03-01T05:16:12.288Z,39.36
2023-03-01T05:19:17.179Z,39.34
2023-03-01T05:22:20.256Z,39.41
2023-03-01T05:25:23.434Z,39.35
2023-03-01T05:28:26.584Z,39.28
2023-03-01T05:31:31.984Z,39.45
2023-03-01T05:34:38.040Z,39.40
2023-03-01T05:37:44.799Z,39.31
2023-03-01T05:40:49.860Z,39.45
2023-03-01T05:43:52.702Z,39.51
2023-03-01T05:46:56.309Z,39.30
2023-03-01T05:50:01.267Z,39.23
2023-03-01T05:53:08.694Z,39.38
2023-03-01T05:56:11.798Z,39.37
2023-03-01T05:59:17.259Z,39.39
2023-03-01T06:02:20.175Z,39.40
2023-03-01T06:05:25.330Z,39.30
2023-03-01T06:08:28.777Z,39.22
2023-03-01T06:11:31.696Z,39.22
2023-03-01T06:14:34.890Z,39.21
2023-03-01T06:17:39.225Z,39.33
2023-03-01T06:20:43.546Z,39.37
2023-03-01T06:23:46.798Z,39.36
2023-03-01T06:26:49.674Z,39.33
2023-03-01T06:29:52.801Z,39.58
2023-03-01T06:33:02.145Z,39.44
2023-03-01T06:36:07.180Z,39.51
2023-03-01T06:39:10.149Z,39.55
2023-03-01T06:42:13.237Z,39.56
2023-03-01T06:45:16.258Z,39.72
2023-03-01T06:48:19.330Z,39.61
2023-03-01T06:51:23.597Z,39.59
2023-03-01T06:54:26.734Z,39.48
2023-03-01T06:57:29.846Z,39.65
2023-03-01T07:00:33.476Z,39.70
2023-03-01T07:03:36.522Z,39.90
2023-03-01T07:06:40.870Z,40.10
2023-03-01T07:09:43.794Z,40.47
2023-03-01T07:12:47.413Z,40.59
2023-03-01T07:15:50.428Z,40.67
2023-03-01T07:18:53.397Z,40.66
2023-03-01T07:21:57.835Z,40.69
2023-03-01T07:25:00.746Z,40.83
2023-03-01T07:28:03.813Z,40.63
2023-03-01T07:31:08.344Z,40.59
2023-03-01T07:34:11.701Z,40.73
2023-03-01T07:37:16.050Z,40.84
2023-03-01T07:40:19.407Z,40.90
2023-03-01T07:43:22.446Z,41.21
2023-03-01T07:46:25.397Z,40.98
2023-03-01T07:49:28.457Z,41.06
2023-03-01T07:52:32.773Z,41.03
2023-03-01T07:55:35.702Z,40.99
2023-03-01T07:58:39.550Z,40.94
2023-03-01T08:01:42.466Z,40.87
2023-03-01T08:04:45.394Z,40.95
2023-03-01T08:07:49.993Z,40.88
2023-03-01T08:10:52.904Z,40.85
2023-03-01T08:13:55.863Z,40.91
2023-03-01T08:16:58.971Z,40.71
2023-03-01T08:20:01.985Z,40.87
2023-03-01T08:23:06.255Z,40.89
2023-03-01T08:26:11.170Z,40.84
2023-03-01T08:29:14.202Z,40.84
2023-03-01T08:32:17.282Z,40.90
2023-03-01T08:35:22.190Z,40.97
2023-03-01T08:38:26.406Z,40.96
2023-03-01T08:41:29.743Z,40.73
2023-03-01T08:44:32.691Z,40.88
2023-03-01T08:47:35.673Z,40.92
2023-03-01T08:50:38.901Z,40.88
2023-03-01T08:53:44.074Z,40.95
2023-03-01T08:56:47.179Z,40.92
2023-03-01T08:59:50.319Z,40.80
2023-03-01T09:02:53.210Z,41.03
2023-03-01T09:06:02.766Z,41.01
2023-03-01T09:09:07.833Z,40.90
2023-03-01T09:12:10.766Z,41.03
2023-03-01T09:15:13.673Z,40.80
2023-03-01T09:18:16.503Z,40.88
2023-03-01T09:21:37.185Z,40.76
2023-03-01T09:24:43.873Z,40.92
2023-03-01T09:27:46.883Z,40.98
2023-03-01T09:30:49.814Z,40.85
2023-03-01T09:33:54.609Z,41.04
2023-03-01T09:37:00.989Z,40.97
2023-03-01T09:40:06.801Z,40.83
2023-03-01T09:43:20.665Z,40.79
2023-03-01T09:46:25.787Z,41.03
2023-03-01T09:49:31.816Z,40.88
2023-03-01T09:52:41.697Z,41.03
2023-03-01T09:55:50.433Z,40.92
2023-03-01T09:58:58.858Z,40.96
2023-03-01T10:02:13.434Z,40.91
2023-03-01T10:05:33.594Z,41.06
2023-03-01T10:08:42.726Z,41.06
2023-03-01T10:11:50.717Z,41.02
2023-03-01T10:15:00.926Z,41.08
2023-03-01T10:18:08.600Z,41.10
2023-03-01T10:21:17.889Z,41.00
2023-03-01T10:24:22.731Z,41.21
2023-03-01T10:27:28.455Z,41.26
2023-03-01T10:30:36.995Z,41.14
2023-03-01T10:33:41.291Z,41.24
2023-03-01T10:36:45.804Z,41.38
2023-03-01T10:40:00.397Z,41.42
2023-03-01T10:43:07.020Z,41.19
2023-03-01T10:46:25.143Z,41.37
2023-03-01T10:49:28.342Z,41.43
2023-03-01T10:52:37.078Z,41.32
2023-03-01T10:55:41.871Z,41.19
2023-03-01T10:59:01.593Z,41.29
2023-03-01T11:02:25.088Z,41.24
2023-03-01T11:05:31.350Z,41.25
2023-03-01T11:08:40.717Z,41.18
2023-03-01T11:11:44.356Z,41.32
2023-03-01T11:14:54.628Z,41.34
2023-03-01T11:18:12.621Z,41.21
2023-03-01T11:21:17.728Z,41.26
2023-03-01T11:24:21.804Z,41.11
2023-03-01T11:27:28.430Z,41.19
2023-03-01T11:30:38.401Z,41.31
2023-03-01T11:33:46.779Z,41.01
2023-03-01T11:36:54.853Z,41.07
2023-03-01T11:40:05.833Z,41.14
2023-03-01T11:43:19.226Z,41.33
2023-03-01T11:46:53.467Z,41.24
2023-03-01T11:50:17.394Z,41.43
2023-03-01T11:53:38.624Z,41.50
2023-03-01T11:56:48.504Z,41.49
2023-03-01T12:00:08.972Z,41.34
2023-03-01T12:03:44.584Z,41.35
2023-03-01T12:06:58.245Z,41.43
2023-03-01T12:10:19.982Z,41.48
2023-03-01T12:13:39.512Z,41.57
2023-03-01T12:17:05.787Z,41.40
2023-03-01T12:20:30.179Z,41.46
2023-03-01T12:24:00.180Z,41.33
2023-03-01T12:27:17.172Z,41.31
2023-03-01T12:30:33.021Z,41.27
2023-03-01T12:33:47.142Z,41.36
2023-03-01T12:37:03.708Z,41.15
2023-03-01T12:40:25.413Z,41.13
2023-03-01T12:43:42.202Z,41.16
2023-03-01T12:46:57.131Z,41.31
2023-03-01T12:50:04.532Z,41.24
2023-03-01T12:53:22.004Z,41.18
2023-03-01T12:56:29.380Z,41.34
2023-03-01T12:59:39.160Z,41.14
2023-03-01T13:02:50.069Z,41.20
2023-03-01T13:06:04.443Z,41.24
2023-03-01T13:09:22.186Z,41.13
2023-03-01T13:12:44.386Z,41.10
2023-03-01T13:15:48.785Z,41.09
2023-03-01T13:18:51.795Z,41.23
2023-03-01T13:21:56.275Z,41.04
2023-03-01T13:25:17.319Z,41.21
2023-03-01T13:28:48.424Z,41.12
2023-03-01T13:32:05.496Z,41.15
2023-03-01T13:35:45.363Z,41.11
2023-03-01T13:38:49.842Z,41.16
2023-03-01T13:41:55.695Z,41.27
2023-03-01T13:44:59.249Z,40.99
2023-03-01T13:48:10.317Z,41.09
2023-03-01T13:51:14.563Z,41.06
2023-03-01T13:54:21.357Z,41.21
2023-03-01T13:57:31.851Z,41.06
2023-03-01T14:00:37.442Z,41.06
2023-03-01T14:03:43.876Z,40.93
2023-03-01T14:06:46.828Z,41.00
2023-03-01T14:09:53.176Z,41.10
2023-03-01T14:13:16.108Z,40.99
2023-03-01T14:16:31.746Z,41.23
2023-03-01T14:19:35.869Z,41.13
2023-03-01T14:22:42.203Z,41.02
2023-03-01T14:25:50.872Z,41.14
2023-03-01T14:28:56.489Z,41.05
2023-03-01T14:32:11.108Z,40.97
2023-03-01T14:35:25.137Z,41.28
2023-03-01T14:38:35.654Z,41.28
2023-03-01T14:41:38.824Z,41.21
2023-03-01T14:44:45.388Z,41.06
2023-03-01T14:47:49.579Z,41.23
2023-03-01T14:50:53.087Z,41.16
2023-03-01T14:53:56.258Z,41.22
2023-03-01T14:57:02.118Z,41.17
2023-03-01T15:00:09.513Z,41.24
2023-03-01T15:03:21.564Z,41.20
2023-03-01T15:06:25.652Z,41.18
2023-03-01T15:09:28.686Z,41.21
2023-03-01T15:12:39.982Z,41.21
2023-03-01T15:15:47.511Z,41.13
2023-03-01T15:18:53.117Z,41.08
2023-03-01T15:21:56.438Z,41.22
2023-03-01T15:24:59.533Z,41.27
2023-03-01T15:28:04.038Z,41.25
2023-03-01T15:31:20.515Z,41.33
2023-03-01T15:34:26.246Z,41.35
2023-03-01T15:37:42.740Z,41.23
2023-03-01T15:40:51.504Z,41.40
2023-03-01T15:43:56.583Z,41.55
2023-03-01T15:47:01.053Z,41.52
2023-03-01T15:50:04.553Z,41.63
2023-03-01T15:53:12.194Z,41.62
2023-03-01T15:56:15.268Z,41.43
2023-03-01T15:59:19.371Z,41.48
2023-03-01T16:02:24.523Z,41.66
2023-03-01T16:05:29.503Z,41.52
2023-03-01T16:08:32.503Z,41.50
2023-03-01T16:11:37.630Z,41.39
2023-03-01T16:14:40.572Z,41.50
2023-03-01T16:17:44.831Z,41.52
2023-03-01T16:20:49.261Z,41.62
2023-03-01T16:23:53.222Z,41.46
2023-03-01T16:26:56.264Z,40.86
2023-03-01T16:29:59.237Z,40.29
2023-03-01T16:33:19.242Z,39.84
2023-03-01T16:36:30.150Z,39.95
2023-03-01T16:39:33.135Z,39.93
2023-03-01T16:42:36.717Z,39.91
2023-03-01T16:45:45.892Z,39.88
2023-03-01T16:48:50.896Z,39.87
2023-03-01T16:51:55.799Z,40.04
2023-03-01T16:54:58.777Z,39.96
2023-03-01T16:58:01.807Z,39.89
2023-03-01T17:01:10.036Z,39.99
2023-03-01T17:04:15.453Z,39.96
2023-03-01T17:07:18.500Z,39.96
2023-03-01T17:10:21.590Z,39.91
2023-03-01T17:13:25.432Z,39.89
2023-03-01T17:16:28.403Z,40.01
2023-03-01T17:19:32.981Z,39.93
2023-03-01T17:22:36.011Z,40.13
2023-03-01T17:25:45.179Z,39.95
2023-03-01T17:28:51.748Z,39.97
2023-03-01T17:31:55.731Z,40.17
2023-03-01T17:35:00.173Z,40.19
2023-03-01T17:38:03.015Z,40.32
2023-03-01T17:41:06.524Z,40.42
2023-03-01T17:44:09.455Z,40.33
2023-03-01T17:47:12.701Z,40.57
2023-03-01T17:50:17.686Z,40.73
2023-03-01T17:53:20.624Z,40.61
2023-03-01T17:56:23.768Z,40.86
2023-03-01T17:59:31.097Z,40.91
2023-03-01T18:02:34.102Z,41.06
2023-03-01T18:05:38.996Z,41.02
2023-03-01T18:08:42.268Z,40.94
2023-03-01T18:11:46.905Z,41.03
2023-03-01T18:14:53.499Z,41.03
2023-03-01T18:17:56.395Z,40.99
2023-03-01T18:21:01.892Z,41.04
2023-03-01T18:24:05.154Z,41.16
2023-03-01T18:27:08.432Z,41.30
2023-03-01T18:30:13.191Z,41.22
2023-03-01T18:33:16.159Z,41.22
2023-03-01T18:36:25.407Z,41.28
2023-03-01T18:39:28.501Z,41.31
2023-03-01T18:42:31.564Z,41.35
2023-03-01T18:45:34.631Z,41.42
2023-03-01T18:48:38.011Z,41.49
2023-03-01T18:51:43.631Z,41.45
2023-03-01T18:54:46.729Z,41.50
2023-03-01T18:57:49.748Z,41.60
2023-03-01T19:00:52.780Z,41.49
2023-03-01T19:03:56.624Z,41.49
2023-03-01T19:07:02.161Z,41.54
2023-03-01T19:10:05.903Z,41.74
2023-03-01T19:13:08.942Z,41.56
2023-03-01T19:16:14.574Z,41.60
2023-03-01T19:19:17.522Z,41.67
2023-03-01T19:22:21.916Z,41.59
2023-03-01T19:25:25.451Z,41.58
2023-03-01T19:28:28.502Z,41.71
2023-03-01T19:31:32.340Z,41.58
2023-03-01T19:34:37.179Z,41.66
2023-03-01T19:37:41.483Z,41.67
2023-03-01T19:40:44.452Z,41.73
2023-03-01T19:43:48.023Z,41.77
2023-03-01T19:46:52.172Z,41.73
2023-03-01T19:49:55.164Z,41.52
2023-03-01T19:52:59.539Z,41.36
2023-03-01T19:56:03.322Z,41.63
2023-03-01T19:59:06.957Z,41.45
2023-03-01T20:02:12.208Z,41.64
2023-03-01T20:05:15.181Z,41.66
2023-03-01T20:08:19.695Z,41.60
2023-03-01T20:11:22.775Z,41.83
2023-03-01T20:14:25.813Z,41.94
2023-03-01T20:17:29.295Z,41.86
2023-03-01T20:20:32.451Z,41.98
2023-03-01T20:23:37.073Z,41.93
2023-03-01T20:26:41.018Z,41.98
2023-03-01T20:29:45.842Z,41.93
2023-03-01T20:32:48.835Z,41.95
2023-03-01T20:35:51.881Z,41.96
2023-03-01T20:38:56.549Z,41.95
2023-03-01T20:41:59.507Z,42.00
2023-03-01T20:45:02.525Z,41.97
2023-03-01T20:48:05.820Z,41.90
2023-03-01T20:51:09.461Z,42.04
2023-03-01T20:54:13.799Z,41.98
2023-03-01T20:57:16.704Z,41.96
2023-03-01T21:00:20.265Z,41.96
2023-03-01T21:03:23.240Z,41.93
2023-03-01T21:06:26.211Z,41.96
2023-03-01T21:09:30.891Z,42.02
2023-03-01T21:12:34.020Z,42.03
2023-03-01T21:15:37.605Z,41.95
2023-03-01T21:18:42.001Z,41.86
2023-03-01T21:21:45.349Z,41.93
2023-03-01T21:24:51.022Z,41.88
2023-03-01T21:27:54.021Z,42.00
2023-03-01T21:30:57.001Z,41.87
2023-03-01T21:34:01.838Z,41.66
2023-03-01T21:37:06.019Z,41.73
2023-03-01T21:40:11.740Z,41.18
2023-03-01T21:43:14.656Z,41.24
2023-03-01T21:46:20.823Z,41.20
2023-03-01T21:49:23.859Z,41.20
2023-03-01T21:52:26.843Z,41.20
2023-03-01T21:55:31.050Z,41.25
2023-03-01T21:58:33.997Z,41.18
2023-03-01T22:01:37.053Z,41.13
2023-03-01T22:04:40.027Z,41.23
2023-03-01T22:07:42.973Z,41.26
2023-03-01T22:10:47.265Z,41.18
2023-03-01T22:13:52.692Z,41.33
2023-03-01T22:16:55.805Z,41.21
2023-03-01T22:19:59.025Z,41.14
2023-03-01T22:23:02.209Z,41.15
2023-03-01T22:26:06.797Z,41.07
2023-03-01T22:29:11.595Z,41.21
2023-03-01T22:32:14.635Z,41.21
2023-03-01T22:35:17.844Z,41.09
2023-03-01T22:38:20.723Z,41.15
2023-03-01T22:41:25.097Z,41.26
2023-03-01T22:44:28.011Z,41.09
2023-03-01T22:47:30.904Z,41.02
2023-03-01T22:50:34.149Z,41.10
2023-03-01T22:53:37.090Z,41.07
2023-03-01T22:56:43.068Z,41.01
2023-03-01T22:59:45.983Z,41.04
2023-03-01T23:02:49.036Z,40.96
2023-03-01T23:05:52.129Z,40.98
2023-03-01T23:08:57.033Z,40.96
2023-03-01T23:12:06.518Z,40.84
2023-03-01T23:15:11.184Z,40.58
2023-03-01T23:18:14.548Z,40.65
2023-03-01T23:21:19.525Z,40.77
2023-03-01T23:24:25.835Z,40.69
2023-03-01T23:27:30.602Z,40.66
2023-03-01T23:30:33.608Z,40.70
2023-03-01T23:33:38.777Z,40.82
2023-03-01T23:36:45.263Z,40.83
2023-03-01T23:39:48.252Z,40.78
2023-03-01T23:42:52.600Z,40.77
2023-03-01T23:45:55.603Z,40.70
2023-03-01T23:48:59.079Z,40.65
2023-03-01T23:52:02.438Z,40.52
2023-03-01T23:55:08.474Z,40.62
2023-03-01T23:58:13.311Z,40.89
